createdAt,value
2016-07-22T00:00:26.689Z,65.95
2016-07-22T00:01:26.650Z,65.95
2016-07-22T00:02:26.624Z,65.95
2016-07-22T00:03:26.611Z,66.14
2016-07-22T00:04:26.596Z,65.95
2016-07-22T00:05:26.579Z,65.85
2016-07-22T00:06:26.567Z,65.95
2016-07-22T00:07:26.550Z,65.47
2016-07-22T00:08:26.536Z,65.66
2016-07-22T00:09:26.522Z,65.47
2016-07-22T00:10:26.505Z,65.47
2016-07-22T00:11:26.492Z,65.95
2016-07-22T00:12:26.476Z,65.56
2016-07-22T00:13:26.463Z,65.95
2016-07-22T00:14:26.449Z,66.14
2016-07-22T00:15:26.432Z,65.85
2016-07-22T00:16:26.420Z,66.33
2016-07-22T00:17:26.405Z,66.33
2016-07-22T00:18:26.390Z,66.24
2016-07-22T00:19:26.377Z,66.53
2016-07-22T00:20:26.361Z,66.53
2016-07-22T00:21:26.346Z,66.43
2016-07-22T00:22:26.330Z,66.72
2016-07-22T00:23:26.317Z,66.72
2016-07-22T00:24:26.302Z,66.72
2016-07-22T00:25:26.286Z,66.82
2016-07-22T00:26:26.272Z,66.91
2016-07-22T00:27:26.257Z,67.11
2016-07-22T00:28:26.243Z,66.91
2016-07-22T00:29:26.229Z,67.4
2016-07-22T00:30:26.214Z,67.3
2016-07-22T00:31:26.197Z,67.3
2016-07-22T00:32:26.185Z,67.36
2016-07-22T00:33:26.168Z,67.69
2016-07-22T00:34:26.156Z,67.66
2016-07-22T00:35:26.142Z,67.46
2016-07-22T00:36:26.125Z,67.46
2016-07-22T00:37:26.111Z,67.36
2016-07-22T00:38:26.095Z,67.94
2016-07-22T00:39:26.084Z,67.36
2016-07-22T00:40:26.064Z,67.56
2016-07-22T00:43:26.023Z,67.66
2016-07-22T00:44:26.008Z,67.85
2016-07-22T00:45:25.993Z,68.24
2016-07-22T00:46:25.977Z,68.24
2016-07-22T00:47:25.960Z,68.24
2016-07-22T00:48:25.946Z,68.04
2016-07-22T00:49:25.930Z,68.04
2016-07-22T00:50:25.921Z,68.04
2016-07-22T00:51:25.906Z,68.24
2016-07-22T00:52:25.896Z,68.14
2016-07-22T00:53:25.873Z,68.04
2016-07-22T00:54:25.857Z,68.14
2016-07-22T00:55:25.844Z,68.14
2016-07-22T00:56:25.833Z,68.33
2016-07-22T00:57:25.815Z,68.24
2016-07-22T00:58:25.798Z,68.04
2016-07-22T00:59:25.785Z,68.14
2016-07-22T01:00:25.769Z,68.04
2016-07-22T01:01:25.755Z,67.46
2016-07-22T01:02:25.744Z,67.66
2016-07-22T01:03:25.724Z,67.56
2016-07-22T01:04:25.710Z,67.27
2016-07-22T01:05:25.696Z,67.56
2016-07-22T01:06:25.685Z,67.75
2016-07-22T01:07:25.665Z,67.46
2016-07-22T01:08:25.653Z,67.27
2016-07-22T01:09:25.640Z,67.36
2016-07-22T01:10:25.630Z,67.08
2016-07-22T01:11:25.607Z,66.85
2016-07-22T01:12:25.596Z,67.33
2016-07-22T01:13:25.578Z,66.88
2016-07-22T01:14:25.562Z,67.14
2016-07-22T01:15:25.548Z,67.33
2016-07-22T01:16:25.546Z,67.24
2016-07-22T01:17:25.516Z,67.43
2016-07-22T01:18:25.504Z,67.52
2016-07-22T01:19:25.487Z,67.24
2016-07-22T01:20:25.475Z,67.43
2016-07-22T01:21:25.457Z,67.62
2016-07-22T01:22:25.441Z,67.33
2016-07-22T01:23:25.428Z,67.82
2016-07-22T01:24:25.410Z,67.66
2016-07-22T01:25:25.397Z,67.72
2016-07-22T01:26:25.381Z,67.52
2016-07-22T01:27:25.371Z,68.01
2016-07-22T01:28:25.352Z,68.1
2016-07-22T01:29:25.334Z,67.62
2016-07-22T01:30:25.321Z,67.91
2016-07-22T01:31:25.307Z,68.3
2016-07-22T01:32:25.293Z,68.3
2016-07-22T01:33:25.275Z,68.3
2016-07-22T01:34:25.262Z,68.01
2016-07-22T01:35:25.247Z,68.2
2016-07-22T01:36:25.229Z,68.2
2016-07-22T01:37:25.219Z,68.2
2016-07-22T01:38:25.213Z,68.01
2016-07-22T01:39:25.188Z,67.91
2016-07-22T01:40:25.171Z,68.01
2016-07-22T01:41:25.155Z,68.3
2016-07-22T01:42:25.141Z,68.68
2016-07-22T01:43:25.127Z,68.78
2016-07-22T01:44:25.111Z,69.07
2016-07-22T01:45:25.106Z,68.78
2016-07-22T01:46:25.078Z,68.78
2016-07-22T01:47:25.066Z,68.68
2016-07-22T01:48:25.050Z,68.88
2016-07-22T01:49:25.035Z,68.78
2016-07-22T01:50:25.025Z,68.98
2016-07-22T01:51:25.006Z,69.07
2016-07-22T01:52:24.989Z,69.17
2016-07-22T01:53:24.975Z,68.88
2016-07-22T01:54:24.958Z,69.56
2016-07-22T01:55:24.944Z,69.46
2016-07-22T01:56:24.929Z,69.56
2016-07-22T01:57:24.916Z,69.17
2016-07-22T01:58:24.898Z,69.46
2016-07-22T01:59:24.885Z,70.04
2016-07-22T02:00:24.871Z,69.65
2016-07-22T02:01:24.855Z,69.84
2016-07-22T02:02:24.837Z,69.94
2016-07-22T02:03:24.843Z,69.74
2016-07-22T02:04:24.808Z,70.32
2016-07-22T02:05:24.790Z,70.23
2016-07-22T02:06:24.776Z,70.14
2016-07-22T02:07:24.762Z,70.42
2016-07-22T02:08:24.746Z,70.52
2016-07-22T02:09:24.732Z,70.62
2016-07-22T02:10:24.718Z,70.62
2016-07-22T02:11:24.702Z,70.62
2016-07-22T02:12:24.685Z,70.52
2016-07-22T02:13:24.672Z,70.32
2016-07-22T02:14:24.661Z,70.58
2016-07-22T02:15:24.643Z,70.78
2016-07-22T02:16:24.627Z,71.16
2016-07-22T02:17:24.611Z,70.87
2016-07-22T02:18:24.597Z,70.58
2016-07-22T02:19:24.580Z,70.78
2016-07-22T02:20:24.567Z,70.68
2016-07-22T02:21:24.549Z,70.87
2016-07-22T02:22:24.537Z,71
2016-07-22T02:23:24.518Z,71.06
2016-07-22T02:24:24.504Z,71.16
2016-07-22T02:25:24.489Z,70.87
2016-07-22T02:26:24.476Z,71.16
2016-07-22T02:27:24.459Z,71.36
2016-07-22T02:28:24.444Z,71.36
2016-07-22T02:29:24.428Z,71.45
2016-07-22T02:30:24.412Z,71.26
2016-07-22T02:31:24.395Z,71.45
2016-07-22T02:32:24.382Z,71.55
2016-07-22T02:33:24.368Z,71.55
2016-07-22T02:34:24.352Z,71.45
2016-07-22T02:35:24.334Z,71.36
2016-07-22T02:36:24.320Z,71.26
2016-07-22T02:37:24.305Z,71.26
2016-07-22T02:38:24.288Z,71.55
2016-07-22T02:39:24.273Z,71.55
2016-07-22T02:40:24.260Z,71.45
2016-07-22T02:41:24.250Z,71.84
2016-07-22T02:42:24.278Z,72.03
2016-07-22T02:43:24.210Z,71.55
2016-07-22T02:44:24.199Z,71.74
2016-07-22T02:45:24.181Z,71.84
2016-07-22T02:46:24.165Z,71.64
2016-07-22T02:47:24.150Z,71.84
2016-07-22T02:48:24.135Z,72.03
2016-07-22T02:49:24.124Z,71.94
2016-07-22T02:50:24.105Z,71.94
2016-07-22T02:51:24.090Z,71.84
2016-07-22T02:52:24.072Z,71.94
2016-07-22T02:53:24.059Z,71.74
2016-07-22T02:54:24.044Z,71.84
2016-07-22T02:55:24.026Z,71.84
2016-07-22T02:56:24.012Z,71.74
2016-07-22T02:57:23.994Z,71.64
2016-07-22T02:58:23.981Z,71.64
2016-07-22T02:59:23.963Z,71.74
2016-07-22T03:00:23.951Z,71.94
2016-07-22T03:01:23.934Z,71.84
2016-07-22T03:02:23.919Z,71.64
2016-07-22T03:03:23.904Z,71.84
2016-07-22T03:04:23.885Z,71.94
2016-07-22T03:05:23.871Z,71.55
2016-07-22T03:06:23.855Z,71.84
2016-07-22T03:07:23.839Z,71.64
2016-07-22T03:08:23.827Z,72.03
2016-07-22T03:09:23.807Z,71.94
2016-07-22T03:10:23.796Z,71.64
2016-07-22T03:11:23.779Z,71.74
2016-07-22T03:12:23.762Z,71.36
2016-07-22T03:13:23.753Z,71.26
2016-07-22T03:14:23.736Z,71.36
2016-07-22T03:15:23.715Z,71.64
2016-07-22T03:16:23.700Z,71.55
2016-07-22T03:17:23.687Z,71.45
2016-07-22T03:18:23.668Z,71.26
2016-07-22T03:19:23.654Z,71.45
2016-07-22T03:20:23.639Z,71.36
2016-07-22T03:21:23.623Z,71.26
2016-07-22T03:22:23.607Z,71.16
2016-07-22T03:23:23.592Z,71.06
2016-07-22T03:24:23.576Z,71.16
2016-07-22T03:25:23.563Z,71.06
2016-07-22T03:26:23.546Z,70.97
2016-07-22T03:27:23.533Z,71.06
2016-07-22T03:28:23.516Z,71.16
2016-07-22T03:29:23.506Z,71.16
2016-07-22T03:30:23.485Z,71.16
2016-07-22T03:31:23.472Z,70.87
2016-07-22T03:32:23.453Z,70.97
2016-07-22T03:33:23.437Z,71.26
2016-07-22T03:34:23.424Z,71.06
2016-07-22T03:35:23.408Z,71.36
2016-07-22T03:36:23.392Z,71.16
2016-07-22T03:37:23.375Z,71.26
2016-07-22T03:38:23.359Z,70.87
2016-07-22T03:39:23.344Z,71.26
2016-07-22T03:40:23.331Z,70.87
2016-07-22T03:41:23.314Z,70.78
2016-07-22T03:42:23.299Z,70.97
2016-07-22T03:43:23.283Z,70.97
2016-07-22T03:44:23.270Z,70.97
2016-07-22T03:45:23.254Z,70.97
2016-07-22T03:46:23.237Z,70.87
2016-07-22T03:47:23.221Z,70.68
2016-07-22T03:48:23.205Z,70.48
2016-07-22T03:49:23.203Z,70.68
2016-07-22T03:50:23.178Z,70.52
2016-07-22T03:51:23.163Z,70.39
2016-07-22T03:52:23.146Z,70.1
2016-07-22T03:53:23.132Z,70.29
2016-07-22T03:54:23.115Z,70.2
2016-07-22T03:55:23.099Z,69.81
2016-07-22T03:56:23.086Z,70.2
2016-07-22T03:57:23.070Z,69.9
2016-07-22T03:58:23.051Z,69.81
2016-07-22T03:59:23.040Z,69.81
2016-07-22T04:00:23.023Z,70
2016-07-22T04:01:23.008Z,70.04
2016-07-22T04:02:23.027Z,70.2
2016-07-22T04:03:23.669Z,70.29
2016-07-22T04:04:22.964Z,70.29
2016-07-22T04:05:22.946Z,70.39
2016-07-22T04:06:22.932Z,70.39
2016-07-22T04:07:22.916Z,70.42
2016-07-22T04:08:22.898Z,70.04
2016-07-22T04:09:22.885Z,70.29
2016-07-22T04:10:22.872Z,69.74
2016-07-22T04:11:22.862Z,69.84
2016-07-22T04:12:22.839Z,70.14
2016-07-22T04:13:22.822Z,70.23
2016-07-22T04:14:22.807Z,69.94
2016-07-22T04:15:22.793Z,69.84
2016-07-22T04:16:22.778Z,69.84
2016-07-22T04:17:22.764Z,69.94
2016-07-22T04:18:22.747Z,69.56
2016-07-22T04:19:22.734Z,69.46
2016-07-22T04:20:22.716Z,69.36
2016-07-22T04:21:22.701Z,69.26
2016-07-22T04:22:22.688Z,69.36
2016-07-22T04:23:22.671Z,69.56
2016-07-22T04:24:22.657Z,69.36
2016-07-22T04:25:22.649Z,69.46
2016-07-22T04:26:22.627Z,69.46
2016-07-22T04:27:22.612Z,68.98
2016-07-22T04:28:22.596Z,68.98
2016-07-22T04:29:22.583Z,68.88
2016-07-22T04:30:22.569Z,69.17
2016-07-22T04:31:22.552Z,69.07
2016-07-22T04:32:22.540Z,69.36
2016-07-22T04:33:22.524Z,68.88
2016-07-22T04:34:22.506Z,68.88
2016-07-22T04:35:22.494Z,68.88
2016-07-22T04:36:22.477Z,69.07
2016-07-22T04:37:22.463Z,68.88
2016-07-22T04:38:22.448Z,68.88
2016-07-22T04:39:22.432Z,68.98
2016-07-22T04:40:22.420Z,69.26
2016-07-22T04:41:22.404Z,68.91
2016-07-22T04:42:22.388Z,68.98
2016-07-22T04:43:22.377Z,68.88
2016-07-22T04:44:22.359Z,68.88
2016-07-22T04:45:22.343Z,68.72
2016-07-22T04:46:22.328Z,68.91
2016-07-22T04:47:22.314Z,69.01
2016-07-22T04:48:22.299Z,68.72
2016-07-22T04:49:22.282Z,68.91
2016-07-22T04:50:22.270Z,68.43
2016-07-22T04:51:22.254Z,68.33
2016-07-22T04:52:22.250Z,68.04
2016-07-22T04:53:22.228Z,68.14
2016-07-22T04:54:22.213Z,68.24
2016-07-22T04:55:22.198Z,68.14
2016-07-22T04:56:22.180Z,68.24
2016-07-22T04:57:22.168Z,68.04
2016-07-22T04:58:22.160Z,68.04
2016-07-22T04:59:22.141Z,68.33
2016-07-22T05:00:22.129Z,68.14
2016-07-22T05:01:22.107Z,68.14
2016-07-22T05:02:22.096Z,68.24
2016-07-22T05:03:22.078Z,68.24
2016-07-22T05:04:22.066Z,68.27
2016-07-22T05:05:22.054Z,68.14
2016-07-22T05:06:22.037Z,68.08
2016-07-22T05:07:22.023Z,68.37
2016-07-22T05:08:22.008Z,68.17
2016-07-22T05:09:21.995Z,68.17
2016-07-22T05:10:21.981Z,68.37
2016-07-22T05:11:21.962Z,68.27
2016-07-22T05:12:21.950Z,68.27
2016-07-22T05:13:21.936Z,68.08
2016-07-22T05:14:21.924Z,68.37
2016-07-22T05:15:21.909Z,68.27
2016-07-22T05:16:21.895Z,68.17
2016-07-22T05:17:21.880Z,68.27
2016-07-22T05:18:21.863Z,68.08
2016-07-22T05:19:21.851Z,68.17
2016-07-22T05:20:21.835Z,68.37
2016-07-22T05:21:21.823Z,68.27
2016-07-22T05:22:21.810Z,68.27
2016-07-22T05:23:21.792Z,68.37
2016-07-22T05:24:21.792Z,68.08
2016-07-22T05:25:21.767Z,68.17
2016-07-22T05:26:21.751Z,68.08
2016-07-22T05:27:21.740Z,68.08
2016-07-22T05:28:21.730Z,68.27
2016-07-22T05:29:21.711Z,68.27
2016-07-22T05:30:21.695Z,68.37
2016-07-22T05:31:21.683Z,68.27
2016-07-22T05:32:21.668Z,68.17
2016-07-22T05:33:21.653Z,68.17
2016-07-22T05:34:21.640Z,68.17
2016-07-22T05:35:21.624Z,68.75
2016-07-22T05:36:21.607Z,68.95
2016-07-22T05:37:21.594Z,69.1
2016-07-22T05:38:21.582Z,69.59
2016-07-22T05:39:21.568Z,69.78
2016-07-22T05:40:21.553Z,69.88
2016-07-22T05:41:21.538Z,70.84
2016-07-22T05:42:21.526Z,70.56
2016-07-22T05:43:21.510Z,70.46
2016-07-22T05:44:21.498Z,70.65
2016-07-22T05:45:21.483Z,70.84
2016-07-22T05:46:21.477Z,70.84
2016-07-22T05:47:21.502Z,71.33
2016-07-22T05:48:21.437Z,71.23
2016-07-22T05:49:21.426Z,71.3
2016-07-22T05:50:21.412Z,70.84
2016-07-22T05:51:21.394Z,71.33
2016-07-22T05:52:21.382Z,71.23
2016-07-22T05:53:21.366Z,70.56
2016-07-22T05:54:21.352Z,70.84
2016-07-22T05:55:21.337Z,70.26
2016-07-22T05:56:21.325Z,69.82
2016-07-22T05:57:21.311Z,69.62
2016-07-22T05:58:21.300Z,69.62
2016-07-22T05:59:21.283Z,69.14
2016-07-22T06:00:21.270Z,69.53
2016-07-22T06:01:21.257Z,69.33
2016-07-22T06:02:21.242Z,68.95
2016-07-22T06:03:21.228Z,69.08
2016-07-22T06:04:21.216Z,68.21
2016-07-22T06:05:21.200Z,68.3
2016-07-22T06:06:21.187Z,67.72
2016-07-22T06:07:21.175Z,67.63
2016-07-22T06:08:21.163Z,67.56
2016-07-22T06:09:21.147Z,67.85
2016-07-22T06:10:21.135Z,67.37
2016-07-22T06:11:21.125Z,66.98
2016-07-22T06:12:21.111Z,66.98
2016-07-22T06:13:21.099Z,66.78
2016-07-22T06:14:21.085Z,66.5
2016-07-22T06:15:21.069Z,66.5
2016-07-22T06:16:21.059Z,66.2
2016-07-22T06:17:21.047Z,66.05
2016-07-22T06:18:21.059Z,65.56
2016-07-22T06:19:21.025Z,65.56
2016-07-22T06:20:21.011Z,65.27
2016-07-22T06:21:21.789Z,64.79
2016-07-22T06:22:21.027Z,64.82
2016-07-22T06:23:20.983Z,64.5
2016-07-22T06:24:20.961Z,64.82
2016-07-22T06:25:20.951Z,64.14
2016-07-22T06:26:20.938Z,63.65
2016-07-22T06:27:20.928Z,63.27
2016-07-22T06:28:20.914Z,63.01
2016-07-22T06:29:20.902Z,62.43
2016-07-22T06:30:20.891Z,62.13
2016-07-22T06:31:20.880Z,61.68
2016-07-22T06:32:20.868Z,61.58
2016-07-22T06:33:20.859Z,61.29
2016-07-22T06:34:20.847Z,60.61
2016-07-22T06:35:20.890Z,60.61
2016-07-22T06:36:20.938Z,61
2016-07-22T06:37:20.814Z,60.03
2016-07-22T06:38:20.804Z,60.23
2016-07-22T06:39:20.893Z,59.58
2016-07-22T06:40:21.306Z,59.58
2016-07-22T06:41:20.773Z,59.38
2016-07-22T06:42:21.125Z,59.09
2016-07-22T06:43:20.757Z,58.9
2016-07-22T06:44:20.765Z,59.28
2016-07-22T06:45:20.731Z,58.73
2016-07-22T06:46:20.722Z,58.73
2016-07-22T06:47:20.711Z,58.34
2016-07-22T06:48:20.718Z,58.15
2016-07-22T06:49:20.692Z,58.25
2016-07-22T06:50:20.682Z,57.57
2016-07-22T06:51:20.704Z,57.08
2016-07-22T06:52:20.665Z,57.11
2016-07-22T06:53:20.653Z,56.72
2016-07-22T06:54:20.645Z,56.24
2016-07-22T06:55:20.635Z,55.88
2016-07-22T06:56:20.626Z,55.49
2016-07-22T06:57:20.615Z,55.39
2016-07-22T06:58:20.606Z,55.1
2016-07-22T06:59:20.595Z,54.9
2016-07-22T07:00:20.588Z,54.64
2016-07-22T07:01:20.579Z,54.25
2016-07-22T07:02:20.569Z,54.25
2016-07-22T07:03:20.564Z,53.57
2016-07-22T07:04:20.658Z,53.59
2016-07-22T07:05:20.783Z,52.92
2016-07-22T07:06:20.654Z,53.11
2016-07-22T07:07:20.534Z,52.23
2016-07-22T07:08:20.523Z,52.14
2016-07-22T07:09:20.512Z,52.43
2016-07-22T07:10:20.741Z,52.33
2016-07-22T07:11:20.501Z,51.84
2016-07-22T07:12:20.495Z,51.75
2016-07-22T07:13:20.490Z,51.45
2016-07-22T07:14:20.663Z,51.36
2016-07-22T07:15:20.463Z,51.65
2016-07-22T07:16:20.454Z,51.29
2016-07-22T07:17:20.447Z,51.39
2016-07-22T07:18:20.598Z,50.99
2016-07-22T07:19:20.430Z,50.63
2016-07-22T07:20:20.422Z,50.53
2016-07-22T07:21:20.630Z,49.85
2016-07-22T07:22:20.552Z,49.56
2016-07-22T07:23:20.402Z,49.56
2016-07-22T07:24:21.321Z,49.46
2016-07-22T07:25:21.044Z,49.39
2016-07-22T07:26:20.378Z,48.9
2016-07-22T07:27:20.385Z,48.68
2016-07-22T07:28:20.361Z,48.51
2016-07-22T07:29:20.357Z,48.51
2016-07-22T07:30:20.348Z,48.22
2016-07-22T07:31:21.387Z,47.27
2016-07-22T07:32:20.461Z,46.78
2016-07-22T07:33:20.466Z,46.59
2016-07-22T07:34:20.319Z,46.31
2016-07-22T07:35:20.325Z,45.83
2016-07-22T07:36:20.341Z,46.04
2016-07-22T07:37:20.307Z,46.04
2016-07-22T07:38:20.297Z,45.56
2016-07-22T07:39:20.416Z,45.46
2016-07-22T07:40:20.286Z,45.65
2016-07-22T07:41:20.276Z,45.56
2016-07-22T07:42:20.275Z,45.65
2016-07-22T07:43:20.324Z,45.56
2016-07-22T07:44:20.954Z,46.04
2016-07-22T07:45:20.255Z,45.54
2016-07-22T07:46:20.253Z,45.83
2016-07-22T07:47:20.292Z,45.07
2016-07-22T07:48:20.340Z,44.38
2016-07-22T07:49:20.260Z,44.38
2016-07-22T07:50:20.225Z,44.48
2016-07-22T07:51:20.216Z,44.29
2016-07-22T07:52:20.690Z,44.29
2016-07-22T07:53:20.204Z,44.19
2016-07-22T07:54:20.278Z,44.38
2016-07-22T07:55:20.194Z,44.48
2016-07-22T07:56:20.293Z,44.19
2016-07-22T07:57:20.236Z,44.38
2016-07-22T07:58:20.179Z,44.19
2016-07-22T07:59:20.272Z,44.51
2016-07-22T08:00:20.164Z,44.38
2016-07-22T08:01:20.393Z,44.29
2016-07-22T08:02:20.278Z,44.19
2016-07-22T08:03:20.155Z,44.38
2016-07-22T08:04:21.597Z,44.41
2016-07-22T08:05:20.157Z,44.68
2016-07-22T08:06:21.038Z,44.78
2016-07-22T08:07:20.187Z,44.68
2016-07-22T08:08:20.897Z,44.7
2016-07-22T08:09:20.107Z,45.48
2016-07-22T08:10:20.100Z,45.68
2016-07-22T08:11:20.092Z,45.95
2016-07-22T08:12:20.090Z,45.95
2016-07-22T08:13:20.150Z,45.85
2016-07-22T08:14:20.074Z,45.95
2016-07-22T08:15:20.066Z,46.04
2016-07-22T08:16:20.064Z,45.65
2016-07-22T08:17:20.062Z,45.85
2016-07-22T08:18:20.339Z,45.75
2016-07-22T08:19:20.889Z,46.34
2016-07-22T08:20:20.031Z,46.51
2016-07-22T08:21:20.399Z,47.09
2016-07-22T08:22:20.582Z,47.36
2016-07-22T08:23:20.011Z,47.85
2016-07-22T08:24:20.003Z,48.05
2016-07-22T08:25:20.718Z,48.44
2016-07-22T08:26:20.936Z,48.71
2016-07-22T08:27:20.646Z,49
2016-07-22T08:28:19.971Z,49.49
2016-07-22T08:29:19.963Z,49.85
2016-07-22T08:30:19.955Z,50.24
2016-07-22T08:31:19.946Z,49.76
2016-07-22T08:32:19.939Z,50.14
2016-07-22T08:33:20.331Z,49.76
2016-07-22T08:34:19.921Z,49.66
2016-07-22T08:35:20.606Z,49.97
2016-07-22T08:36:19.905Z,50.26
2016-07-22T08:37:19.916Z,50.26
2016-07-22T08:38:19.890Z,50.34
2016-07-22T08:39:19.903Z,50.53
2016-07-22T08:40:20.564Z,51.12
2016-07-22T08:41:19.866Z,51.02
2016-07-22T08:42:19.942Z,51.9
2016-07-22T08:43:19.852Z,51.51
2016-07-22T08:44:19.844Z,52.67
2016-07-22T08:45:19.836Z,52.16
2016-07-22T08:46:19.826Z,53.33
2016-07-22T08:47:19.819Z,52.65
2016-07-22T08:48:19.813Z,52.75
2016-07-22T08:49:19.819Z,52.94
2016-07-22T08:50:19.795Z,52.94
2016-07-22T08:51:19.789Z,52.87
2016-07-22T08:52:19.792Z,53.16
2016-07-22T08:53:19.773Z,53.14
2016-07-22T08:54:19.769Z,53.91
2016-07-22T08:55:19.759Z,53.62
2016-07-22T08:56:19.755Z,53.62
2016-07-22T08:57:19.741Z,53.81
2016-07-22T08:58:19.948Z,54.79
2016-07-22T08:59:20.491Z,55.35
2016-07-22T09:00:19.985Z,55.83
2016-07-22T09:01:19.713Z,56.59
2016-07-22T09:02:19.951Z,56.59
2016-07-22T09:03:20.088Z,56.75
2016-07-22T09:04:19.715Z,56.77
2016-07-22T09:05:19.680Z,56.85
2016-07-22T09:06:19.670Z,56.85
2016-07-22T09:07:19.663Z,57.43
2016-07-22T09:08:19.655Z,57.33
2016-07-22T09:09:19.647Z,57.82
2016-07-22T09:10:19.637Z,57.62
2016-07-22T09:11:19.629Z,58.11
2016-07-22T09:12:19.669Z,58.4
2016-07-22T09:13:19.607Z,57.98
2016-07-22T09:14:19.650Z,58.57
2016-07-22T09:15:19.591Z,59.15
2016-07-22T09:16:19.579Z,59.25
2016-07-22T09:17:19.570Z,58.86
2016-07-22T09:18:19.698Z,58.67
2016-07-22T09:19:19.551Z,59.05
2016-07-22T09:20:19.540Z,59.54
2016-07-22T09:21:19.535Z,59.44
2016-07-22T09:22:19.845Z,59.51
2016-07-22T09:23:19.513Z,59.74
2016-07-22T09:24:19.502Z,60.09
2016-07-22T09:25:20.252Z,60.09
2016-07-22T09:26:20.227Z,60.02
2016-07-22T09:27:19.476Z,60.58
2016-07-22T09:28:19.600Z,60.61
2016-07-22T09:29:19.580Z,60.58
2016-07-22T09:30:19.827Z,60.48
2016-07-22T09:31:19.440Z,61.16
2016-07-22T09:32:19.431Z,61.16
2016-07-22T09:33:19.658Z,61.25
2016-07-22T09:34:20.006Z,61.25
2016-07-22T09:35:19.401Z,61.25
2016-07-22T09:36:19.396Z,61.25
2016-07-22T09:37:19.380Z,61.55
2016-07-22T09:38:19.373Z,61.65
2016-07-22T09:39:19.363Z,61.74
2016-07-22T09:40:20.067Z,61.65
2016-07-22T09:41:19.343Z,61.45
2016-07-22T09:42:19.337Z,61.61
2016-07-22T09:43:19.380Z,61.81
2016-07-22T09:44:19.319Z,62.59
2016-07-22T09:45:19.310Z,62.46
2016-07-22T09:46:19.296Z,62.55
2016-07-22T09:47:20.011Z,63.04
2016-07-22T09:48:19.283Z,63.13
2016-07-22T09:49:19.317Z,63.13
2016-07-22T09:50:19.652Z,62.65
2016-07-22T09:51:19.440Z,62.55
2016-07-22T09:52:19.600Z,62.65
2016-07-22T09:53:19.381Z,62.36
2016-07-22T09:54:19.370Z,63.13
2016-07-22T09:55:19.576Z,63.2
2016-07-22T09:56:19.351Z,62.91
2016-07-22T09:57:19.182Z,62.91
2016-07-22T09:58:19.356Z,63.01
2016-07-22T09:59:19.230Z,63.01
2016-07-22T10:00:19.450Z,62.88
2016-07-22T10:01:19.401Z,62.88
2016-07-22T10:02:19.281Z,62.98
2016-07-22T10:03:19.339Z,62.88
2016-07-22T10:04:19.971Z,62.98
2016-07-22T10:05:19.246Z,63.46
2016-07-22T10:06:19.245Z,63.07
2016-07-22T10:07:19.216Z,63.43
2016-07-22T10:08:19.324Z,63.62
2016-07-22T10:09:19.095Z,64.01
2016-07-22T10:10:19.026Z,64.01
2016-07-22T10:11:19.707Z,63.24
2016-07-22T10:12:19.003Z,63.14
2016-07-22T10:13:18.997Z,62.27
2016-07-22T10:14:19.000Z,62.17
2016-07-22T10:15:18.968Z,61.21
2016-07-22T10:16:18.958Z,60.72
2016-07-22T10:17:18.964Z,60.04
2016-07-22T10:18:18.930Z,59.66
2016-07-22T10:19:19.012Z,59.07
2016-07-22T10:20:19.051Z,58.59
2016-07-22T10:21:19.056Z,58.17
2016-07-22T10:22:19.044Z,57.62
2016-07-22T10:23:18.999Z,57.14
2016-07-22T10:24:18.863Z,56.46
2016-07-22T10:25:19.370Z,56.94
2016-07-22T10:26:19.003Z,56.56
2016-07-22T10:27:19.729Z,56.26
2016-07-22T10:28:19.414Z,56
2016-07-22T10:29:18.949Z,55.32
2016-07-22T10:30:19.123Z,55.22
2016-07-22T10:31:19.791Z,54.84
2016-07-22T10:32:19.835Z,54.38
2016-07-22T10:33:18.848Z,53.89
2016-07-22T10:34:18.764Z,53.51
2016-07-22T10:35:18.905Z,52.73
2016-07-22T10:36:18.754Z,52.76
2016-07-22T10:37:19.056Z,52.28
2016-07-22T10:38:18.737Z,52.08
2016-07-22T10:39:18.723Z,51.21
2016-07-22T10:40:18.715Z,50.94
2016-07-22T10:41:18.799Z,50.48
2016-07-22T10:42:18.699Z,50.38
2016-07-22T10:43:18.748Z,49.99
2016-07-22T10:44:18.683Z,49.24
2016-07-22T10:45:18.675Z,49.54
2016-07-22T10:46:18.721Z,48.85
2016-07-22T10:47:18.657Z,48.95
2016-07-22T10:48:18.652Z,49.05
2016-07-22T10:49:18.840Z,49.34
2016-07-22T10:50:18.638Z,48.57
2016-07-22T10:51:18.633Z,49.15
2016-07-22T10:52:18.618Z,49.73
2016-07-22T10:53:18.611Z,49.54
2016-07-22T10:54:18.602Z,49.82
2016-07-22T10:55:18.594Z,49.24
2016-07-22T10:56:18.585Z,49.56
2016-07-22T10:57:18.577Z,49.07
2016-07-22T10:58:18.568Z,48.78
2016-07-22T10:59:18.562Z,49.05
2016-07-22T11:00:18.552Z,49.34
2016-07-22T11:01:18.543Z,49.15
2016-07-22T11:02:18.536Z,48.95
2016-07-22T11:03:18.526Z,49.34
2016-07-22T11:04:18.519Z,49.34
2016-07-22T11:05:18.506Z,48.95
2016-07-22T11:06:18.500Z,48.57
2016-07-22T11:07:18.492Z,48.27
2016-07-22T11:08:18.481Z,48.57
2016-07-22T11:09:18.470Z,48.57
2016-07-22T11:10:18.470Z,48.18
2016-07-22T11:11:18.454Z,48.57
2016-07-22T11:12:18.446Z,49.02
2016-07-22T11:13:18.436Z,48.93
2016-07-22T11:14:18.431Z,49.41
2016-07-22T11:15:18.417Z,49.77
2016-07-22T11:16:18.421Z,49.68
2016-07-22T11:17:18.397Z,49.58
2016-07-22T11:18:18.388Z,49.41
2016-07-22T11:19:18.380Z,49.51
2016-07-22T11:20:18.368Z,49.51
2016-07-22T11:21:18.357Z,49.32
2016-07-22T11:22:18.349Z,49.12
2016-07-22T11:23:18.342Z,48.54
2016-07-22T11:24:18.330Z,48.27
2016-07-22T11:25:18.324Z,47.49
2016-07-22T11:26:18.315Z,47.32
2016-07-22T11:27:18.306Z,46.84
2016-07-22T11:28:18.296Z,46.08
2016-07-22T11:29:18.290Z,45.69
2016-07-22T11:30:18.287Z,45.72
2016-07-22T11:31:18.271Z,44.55
2016-07-22T11:32:18.267Z,43.67
2016-07-22T11:33:18.261Z,43.11
2016-07-22T11:34:18.253Z,42.45
2016-07-22T11:35:18.247Z,42.06
2016-07-22T11:36:18.242Z,40.99
2016-07-22T11:37:18.928Z,40.89
2016-07-22T11:38:18.228Z,40.41
2016-07-22T11:39:18.225Z,40.01
2016-07-22T11:40:18.218Z,39.82
2016-07-22T11:41:18.211Z,39.53
2016-07-22T11:42:18.215Z,38.95
2016-07-22T11:43:18.222Z,38.65
2016-07-22T11:44:18.192Z,38.75
2016-07-22T11:45:18.316Z,38.85
2016-07-22T11:46:18.256Z,38.64
2016-07-22T11:47:19.286Z,38.93
2016-07-22T11:48:18.167Z,38.64
2016-07-22T11:49:18.389Z,38.93
2016-07-22T11:50:18.531Z,38.93
2016-07-22T11:51:19.425Z,38.83
2016-07-22T11:52:18.140Z,38.73
2016-07-22T11:53:18.128Z,39.03
2016-07-22T11:54:19.019Z,39.22
2016-07-22T11:55:19.126Z,39.03
2016-07-22T11:56:18.539Z,39.41
2016-07-22T11:57:19.064Z,39.2
2016-07-22T11:58:18.880Z,39.69
2016-07-22T11:59:19.223Z,39.88
2016-07-22T12:00:18.544Z,40.08
2016-07-22T12:01:19.403Z,39.88
2016-07-22T12:02:18.623Z,40.17
2016-07-22T12:03:18.394Z,40.06
2016-07-22T12:04:18.994Z,40.17
2016-07-22T12:05:19.097Z,40.25
2016-07-22T12:06:18.220Z,40.15
2016-07-22T12:07:18.647Z,39.96
2016-07-22T12:08:18.872Z,39.96
2016-07-22T12:09:18.027Z,39.69
2016-07-22T12:10:18.205Z,39.2
2016-07-22T12:11:18.131Z,39.1
2016-07-22T12:12:18.428Z,38.24
2016-07-22T12:13:18.199Z,37.76
2016-07-22T12:14:18.998Z,37.46
2016-07-22T12:15:18.975Z,36.59
2016-07-22T12:16:18.417Z,36.51
2016-07-22T12:17:18.257Z,35.83
2016-07-22T12:18:19.086Z,35.44
2016-07-22T12:19:18.962Z,35.26
2016-07-22T12:20:18.313Z,35.06
2016-07-22T12:21:18.254Z,34.31
2016-07-22T12:22:18.153Z,34.5
2016-07-22T12:23:19.050Z,34.03
2016-07-22T12:24:18.943Z,33.75
2016-07-22T12:25:19.118Z,33.46
2016-07-22T12:26:18.317Z,33.17
2016-07-22T12:27:18.294Z,32.7
2016-07-22T12:28:18.419Z,32.23
2016-07-22T12:29:18.337Z,31.95
2016-07-22T12:30:18.020Z,31.26
2016-07-22T12:31:18.973Z,30.98
2016-07-22T12:32:18.003Z,30.98
2016-07-22T12:33:18.403Z,30.61
2016-07-22T12:34:18.388Z,29.84
2016-07-22T12:35:18.871Z,30.13
2016-07-22T12:36:18.982Z,29.95
2016-07-22T12:37:18.028Z,28.97
2016-07-22T12:38:17.879Z,29.28
2016-07-22T12:39:19.016Z,28.89
2016-07-22T12:40:19.057Z,29.18
2016-07-22T12:41:17.945Z,28.89
2016-07-22T12:42:17.874Z,28.88
2016-07-22T12:43:19.059Z,29.17
2016-07-22T12:44:18.253Z,28.97
2016-07-22T12:45:18.846Z,28.88
2016-07-22T12:46:17.906Z,28.96
2016-07-22T12:47:18.021Z,29.36
2016-07-22T12:48:18.422Z,29.55
2016-07-22T12:49:18.018Z,29.45
2016-07-22T12:50:18.416Z,29.46
2016-07-22T12:51:18.816Z,28.88
2016-07-22T12:52:18.897Z,29.85
2016-07-22T12:53:17.991Z,30.25
2016-07-22T12:54:18.253Z,30.33
2016-07-22T12:55:17.981Z,30.91
2016-07-22T12:56:18.152Z,31.01